»·PEaware :: N369TW KSNA-KBUR

N369TW :: KSNA-KBUR

FLIGHT INFORMATION

Flight Status: Arrived
Operator: Privately registered:
United States
More flights under this callsign
Pilot: Bill C. (27656)
Aircraft: CESSNA 172 SKYHAWK
(C172)
More flights by this aircraft type
Origin: KSNA John Wayne-Orange Co
United States
Destination: KBUR Bob Hope-Burbank
United States
More flights between these airports :: More routes between these airports
Route: SLI V23 POPPR SMO125 SMO SMO311 SILEX
File this flight plan on PilotEdge
Remarks: Request KBUR ILS Y RWY 8
Altitude:
(Current/Filed)
4,000ft
Speed:
(Current/Filed)
110kts
Departed: 10-Oct-21 09:07 AM
Arrived: 10-Oct-21 09:52 AM
Distance/Time
Traveled:
40nm/0:44
Distance/Time
To Go:
Arrived

Flight Plot

Page will automatically refresh every two minutes.


Map Options




Map Legend


Flown Route
Filed Route
Departure Airport
Arrival Airport
Navaid (VOR, NDB)
Fix

Horizontal Profiles

Position Reports

Time Latitude Longitude Heading Altitude Ground
Speed
10-Oct-21 08:28 33.672446 -117.867192 208 60ft 0kts
10-Oct-21 08:29 33.672542 -117.866865 313 60ft 0kts
10-Oct-21 08:31 33.672542 -117.866865 313 60ft 0kts
10-Oct-21 08:31 33.672542 -117.866865 313 60ft 0kts
10-Oct-21 08:32 33.672542 -117.866865 313 60ft 0kts
10-Oct-21 08:33 33.672542 -117.866865 313 60ft 0kts
10-Oct-21 08:34 33.672542 -117.866865 313 60ft 0kts
10-Oct-21 08:35 33.672542 -117.866865 313 60ft 0kts
10-Oct-21 08:36 33.672542 -117.866865 313 60ft 0kts
10-Oct-21 08:38 33.672542 -117.866865 313 60ft 0kts
10-Oct-21 08:38 33.672542 -117.866865 313 60ft 0kts
10-Oct-21 08:39 33.672542 -117.866865 313 60ft 0kts
10-Oct-21 08:40 33.672542 -117.866865 313 60ft 0kts
10-Oct-21 08:41 33.672542 -117.866865 313 60ft 0kts
10-Oct-21 08:42 33.672542 -117.866865 313 60ft 0kts
10-Oct-21 08:43 33.672542 -117.866865 313 60ft 0kts
10-Oct-21 08:44 33.672542 -117.866865 313 60ft 0kts
10-Oct-21 08:45 33.672542 -117.866865 313 60ft 0kts
10-Oct-21 08:46 33.672542 -117.866865 313 60ft 0kts
10-Oct-21 08:47 33.672542 -117.866865 313 60ft 0kts
10-Oct-21 08:48 33.672542 -117.866865 313 60ft 0kts
10-Oct-21 08:49 33.672542 -117.866865 313 60ft 0kts
10-Oct-21 08:50 33.672542 -117.866865 313 60ft 0kts
10-Oct-21 08:51 33.672542 -117.866865 313 60ft 0kts
10-Oct-21 08:52 33.672542 -117.866865 313 60ft 0kts
10-Oct-21 08:53 33.672542 -117.866865 313 60ft 0kts
10-Oct-21 08:54 33.672542 -117.866865 313 60ft 0kts
10-Oct-21 08:55 33.672542 -117.866865 313 60ft 0kts
10-Oct-21 08:56 33.672542 -117.866865 313 60ft 0kts
10-Oct-21 08:57 33.672542 -117.866865 313 60ft 0kts
10-Oct-21 08:58 33.672542 -117.866865 313 60ft 0kts
10-Oct-21 08:59 33.672542 -117.866865 313 60ft 0kts
10-Oct-21 09:00 33.672542 -117.866865 313 60ft 0kts
10-Oct-21 09:01 33.672542 -117.866865 313 60ft 0kts
10-Oct-21 09:02 33.672798 -117.867083 328 60ft 1kts
10-Oct-21 09:03 33.676042 -117.865855 27 60ft 22kts
10-Oct-21 09:04 33.679904 -117.863571 317 60ft 0kts
10-Oct-21 09:05 33.679904 -117.863571 317 60ft 0kts
10-Oct-21 09:06 33.670350 -117.870967 214 290ft 86kts
10-Oct-21 09:07 33.655091 -117.892415 245 1218ft 91kts
10-Oct-21 09:08 33.640782 -117.917866 235 2006ft 99kts
10-Oct-21 09:09 33.622066 -117.947005 235 1958ft 110kts
10-Oct-21 09:10 33.608131 -117.976941 262 2197ft 91kts
10-Oct-21 09:11 33.613234 -118.006278 264 3011ft 86kts
10-Oct-21 09:12 33.616483 -118.040932 277 3459ft 105kts
10-Oct-21 09:13 33.629934 -118.071435 317 3981ft 107kts
10-Oct-21 09:14 33.650136 -118.098800 315 4064ft 109kts
10-Oct-21 09:15 33.672697 -118.124482 323 3925ft 110kts
10-Oct-21 09:16 33.695240 -118.148328 320 3956ft 108kts
10-Oct-21 09:17 33.718001 -118.171774 317 3985ft 108kts
10-Oct-21 09:18 33.740269 -118.195567 319 4009ft 107kts
10-Oct-21 09:19 33.762022 -118.219682 325 4034ft 106kts
10-Oct-21 09:20 33.785194 -118.242311 324 4011ft 107kts
10-Oct-21 09:21 33.809715 -118.262562 323 3977ft 107kts
10-Oct-21 09:22 33.832245 -118.286090 322 3964ft 107kts
10-Oct-21 09:23 33.855545 -118.308462 324 3978ft 106kts
10-Oct-21 09:24 33.879460 -118.329696 326 4008ft 107kts
10-Oct-21 09:25 33.902207 -118.352854 323 4022ft 107kts
10-Oct-21 09:26 33.925487 -118.375100 320 4023ft 107kts
10-Oct-21 09:27 33.948372 -118.398425 321 3998ft 108kts
10-Oct-21 09:28 33.972049 -118.421070 326 3976ft 110kts
10-Oct-21 09:29 33.996020 -118.444094 319 3996ft 111kts
10-Oct-21 09:30 34.020733 -118.466363 328 4027ft 111kts
10-Oct-21 09:31 34.047899 -118.484396 342 4059ft 111kts
10-Oct-21 09:32 34.072387 -118.507109 314 4018ft 112kts
10-Oct-21 09:33 34.094882 -118.533229 312 3963ft 115kts
10-Oct-21 09:34 34.115665 -118.561590 313 4059ft 113kts
10-Oct-21 09:35 34.134831 -118.591135 310 4001ft 110kts
10-Oct-21 09:36 34.154183 -118.619079 313 3999ft 106kts
10-Oct-21 09:37 34.173584 -118.645881 313 4057ft 105kts
10-Oct-21 09:38 34.192996 -118.672391 310 4110ft 105kts
10-Oct-21 09:39 34.212454 -118.699224 313 4030ft 107kts
10-Oct-21 09:40 34.227059 -118.684906 116 4018ft 111kts
10-Oct-21 09:41 34.212736 -118.651183 114 3806ft 107kts
10-Oct-21 09:42 34.197840 -118.619559 104 3653ft 109kts
10-Oct-21 09:43 34.199489 -118.584475 82 3543ft 101kts
10-Oct-21 09:44 34.199756 -118.549463 91 3448ft 104kts
10-Oct-21 09:45 34.196615 -118.514753 88 3237ft 103kts
10-Oct-21 09:46 34.198389 -118.480489 99 2976ft 105kts
10-Oct-21 09:47 34.197860 -118.449128 86 2608ft 89kts
10-Oct-21 09:48 34.198439 -118.419081 90 2095ft 93kts
10-Oct-21 09:49 34.198055 -118.388891 89 1502ft 73kts
10-Oct-21 09:50 34.197850 -118.364682 92 734ft 59kts
10-Oct-21 09:51 34.198559 -118.360271 355 717ft 0kts

Navigation Log

Ident Type
Flight plan parsing failed, navigation log unavailable